sensor_id;sensor_type;location;lat;lon;timestamp;temperature;humidity
11934;DHT22;6026;48.784;9.198;2023-05-07T00:00:21;14.70;99.90
11934;DHT22;6026;48.784;9.198;2023-05-07T00:02:47;14.70;99.90
11934;DHT22;6026;48.784;9.198;2023-05-07T00:05:13;14.70;99.90
11934;DHT22;6026;48.784;9.198;2023-05-07T00:07:38;14.70;99.90
11934;DHT22;6026;48.784;9.198;2023-05-07T00:10:04;14.70;99.90
11934;DHT22;6026;48.784;9.198;2023-05-07T00:12:32;14.70;99.90
11934;DHT22;6026;48.784;9.198;2023-05-07T00:15:00;14.70;99.90
11934;DHT22;6026;48.784;9.198;2023-05-07T00:17:25;14.60;99.90
11934;DHT22;6026;48.784;9.198;2023-05-07T00:19:51;14.60;99.90
11934;DHT22;6026;48.784;9.198;2023-05-07T00:22:16;14.60;99.90
11934;DHT22;6026;48.784;9.198;2023-05-07T00:24:42;14.60;99.90
11934;DHT22;6026;48.784;9.198;2023-05-07T00:27:08;14.50;99.90
11934;DHT22;6026;48.784;9.198;2023-05-07T00:29:34;14.50;99.90
11934;DHT22;6026;48.784;9.198;2023-05-07T00:31:59;14.50;99.90
11934;DHT22;6026;48.784;9.198;2023-05-07T00:34:25;14.50;99.90
11934;DHT22;6026;48.784;9.198;2023-05-07T00:36:50;14.50;99.90
11934;DHT22;6026;48.784;9.198;2023-05-07T00:39:16;14.40;99.90
11934;DHT22;6026;48.784;9.198;2023-05-07T00:41:41;14.40;99.90
11934;DHT22;6026;48.784;9.198;2023-05-07T00:44:07;14.40;99.90
11934;DHT22;6026;48.784;9.198;2023-05-07T00:46:33;14.30;99.90
11934;DHT22;6026;48.784;9.198;2023-05-07T00:48:59;14.30;99.90
11934;DHT22;6026;48.784;9.198;2023-05-07T00:51:25;14.30;99.90
11934;DHT22;6026;48.784;9.198;2023-05-07T00:53:53;14.30;99.90
11934;DHT22;6026;48.784;9.198;2023-05-07T00:56:20;14.20;99.90
11934;DHT22;6026;48.784;9.198;2023-05-07T00:58:46;14.20;99.90
11934;DHT22;6026;48.784;9.198;2023-05-07T01:01:11;14.20;99.90
11934;DHT22;6026;48.784;9.198;2023-05-07T01:03:37;14.20;99.90
11934;DHT22;6026;48.784;9.198;2023-05-07T01:06:03;14.20;99.90
11934;DHT22;6026;48.784;9.198;2023-05-07T01:08:31;14.20;99.90
11934;DHT22;6026;48.784;9.198;2023-05-07T01:10:57;14.20;99.90
11934;DHT22;6026;48.784;9.198;2023-05-07T01:13:24;14.10;99.90
11934;DHT22;6026;48.784;9.198;2023-05-07T01:15:50;14.10;99.90
11934;DHT22;6026;48.784;9.198;2023-05-07T01:18:15;14.10;99.90
11934;DHT22;6026;48.784;9.198;2023-05-07T01:20:42;14.00;99.90
11934;DHT22;6026;48.784;9.198;2023-05-07T01:23:08;14.00;99.90
11934;DHT22;6026;48.784;9.198;2023-05-07T01:25:34;14.00;99.90
11934;DHT22;6026;48.784;9.198;2023-05-07T01:28:00;13.90;99.90
11934;DHT22;6026;48.784;9.198;2023-05-07T01:30:27;14.00;99.90
11934;DHT22;6026;48.784;9.198;2023-05-07T01:33:09;14.00;99.90
11934;DHT22;6026;48.784;9.198;2023-05-07T01:35:38;13.90;99.90
11934;DHT22;6026;48.784;9.198;2023-05-07T01:38:04;13.90;99.90
11934;DHT22;6026;48.784;9.198;2023-05-07T01:40:31;13.90;99.90
11934;DHT22;6026;48.784;9.198;2023-05-07T01:42:57;13.90;99.90
11934;DHT22;6026;48.784;9.198;2023-05-07T01:45:23;13.90;99.90
11934;DHT22;6026;48.784;9.198;2023-05-07T01:47:49;13.90;99.90
11934;DHT22;6026;48.784;9.198;2023-05-07T01:50:17;13.80;99.90
11934;DHT22;6026;48.784;9.198;2023-05-07T01:52:43;13.80;99.90
11934;DHT22;6026;48.784;9.198;2023-05-07T01:55:09;13.80;99.90
11934;DHT22;6026;48.784;9.198;2023-05-07T01:57:34;13.80;99.90
11934;DHT22;6026;48.784;9.198;2023-05-07T02:00:00;13.80;99.90
11934;DHT22;6026;48.784;9.198;2023-05-07T02:02:31;13.70;99.90
11934;DHT22;6026;48.784;9.198;2023-05-07T02:04:57;13.70;99.90
11934;DHT22;6026;48.784;9.198;2023-05-07T02:07:22;13.70;99.90
11934;DHT22;6026;48.784;9.198;2023-05-07T02:09:48;13.70;99.90
11934;DHT22;6026;48.784;9.198;2023-05-07T02:12:13;13.70;99.90
11934;DHT22;6026;48.784;9.198;2023-05-07T02:14:39;13.70;99.90
11934;DHT22;6026;48.784;9.198;2023-05-07T02:17:04;13.60;99.90
11934;DHT22;6026;48.784;9.198;2023-05-07T02:19:30;13.60;99.90
11934;DHT22;6026;48.784;9.198;2023-05-07T02:21:56;13.60;99.90
11934;DHT22;6026;48.784;9.198;2023-05-07T02:24:21;13.60;99.90
11934;DHT22;6026;48.784;9.198;2023-05-07T02:26:47;13.50;99.90
11934;DHT22;6026;48.784;9.198;2023-05-07T02:29:12;13.50;99.90
11934;DHT22;6026;48.784;9.198;2023-05-07T02:31:38;13.50;99.90
11934;DHT22;6026;48.784;9.198;2023-05-07T02:34:03;13.50;99.90
11934;DHT22;6026;48.784;9.198;2023-05-07T02:36:29;13.50;99.90
11934;DHT22;6026;48.784;9.198;2023-05-07T02:38:55;13.40;99.90
11934;DHT22;6026;48.784;9.198;2023-05-07T02:41:20;13.40;99.90
11934;DHT22;6026;48.784;9.198;2023-05-07T02:43:46;13.40;99.90
11934;DHT22;6026;48.784;9.198;2023-05-07T02:46:12;13.40;99.90
11934;DHT22;6026;48.784;9.198;2023-05-07T02:48:37;13.40;99.90
11934;DHT22;6026;48.784;9.198;2023-05-07T02:51:04;13.40;99.90
11934;DHT22;6026;48.784;9.198;2023-05-07T02:53:30;13.40;99.90
11934;DHT22;6026;48.784;9.198;2023-05-07T02:55:57;13.30;99.90
11934;DHT22;6026;48.784;9.198;2023-05-07T02:58:23;13.30;99.90
11934;DHT22;6026;48.784;9.198;2023-05-07T03:00:49;13.30;99.90
11934;DHT22;6026;48.784;9.198;2023-05-07T03:03:15;13.30;99.90
11934;DHT22;6026;48.784;9.198;2023-05-07T03:05:40;13.30;99.90
11934;DHT22;6026;48.784;9.198;2023-05-07T03:08:08;13.20;99.90
11934;DHT22;6026;48.784;9.198;2023-05-07T03:10:34;13.10;99.90
11934;DHT22;6026;48.784;9.198;2023-05-07T03:13:00;13.10;99.90
11934;DHT22;6026;48.784;9.198;2023-05-07T03:15:26;13.10;99.90
11934;DHT22;6026;48.784;9.198;2023-05-07T03:17:52;13.10;99.90
11934;DHT22;6026;48.784;9.198;2023-05-07T03:20:17;13.10;99.90
11934;DHT22;6026;48.784;9.198;2023-05-07T03:22:43;13.00;99.90
11934;DHT22;6026;48.784;9.198;2023-05-07T03:25:09;13.10;99.90
11934;DHT22;6026;48.784;9.198;2023-05-07T03:27:34;13.00;99.90
11934;DHT22;6026;48.784;9.198;2023-05-07T03:30:00;13.00;99.90
11934;DHT22;6026;48.784;9.198;2023-05-07T03:32:26;13.00;99.90
11934;DHT22;6026;48.784;9.198;2023-05-07T03:34:52;12.90;99.90
11934;DHT22;6026;48.784;9.198;2023-05-07T03:37:18;12.90;99.90
11934;DHT22;6026;48.784;9.198;2023-05-07T03:39:44;12.90;99.90
11934;DHT22;6026;48.784;9.198;2023-05-07T03:42:10;12.90;99.90
11934;DHT22;6026;48.784;9.198;2023-05-07T03:44:35;12.80;99.90
11934;DHT22;6026;48.784;9.198;2023-05-07T03:47:02;12.80;99.90
11934;DHT22;6026;48.784;9.198;2023-05-07T03:49:28;12.70;99.90
11934;DHT22;6026;48.784;9.198;2023-05-07T03:51:53;12.70;99.90
11934;DHT22;6026;48.784;9.198;2023-05-07T03:54:19;12.60;99.90
11934;DHT22;6026;48.784;9.198;2023-05-07T03:56:44;12.70;99.90
11934;DHT22;6026;48.784;9.198;2023-05-07T03:59:10;12.70;99.90
11934;DHT22;6026;48.784;9.198;2023-05-07T04:01:36;12.70;99.90
11934;DHT22;6026;48.784;9.198;2023-05-07T04:04:01;12.70;99.90
11934;DHT22;6026;48.784;9.198;2023-05-07T04:06:28;12.70;99.90
11934;DHT22;6026;48.784;9.198;2023-05-07T04:08:54;12.70;99.90
11934;DHT22;6026;48.784;9.198;2023-05-07T04:11:20;12.60;99.90
11934;DHT22;6026;48.784;9.198;2023-05-07T04:13:46;12.60;99.90
11934;DHT22;6026;48.784;9.198;2023-05-07T04:16:11;12.60;99.90
11934;DHT22;6026;48.784;9.198;2023-05-07T04:18:37;12.60;99.90
11934;DHT22;6026;48.784;9.198;2023-05-07T04:21:03;12.60;99.90
11934;DHT22;6026;48.784;9.198;2023-05-07T04:23:28;12.60;99.90
11934;DHT22;6026;48.784;9.198;2023-05-07T04:25:54;12.60;99.90
11934;DHT22;6026;48.784;9.198;2023-05-07T04:28:20;12.60;99.90
11934;DHT22;6026;48.784;9.198;2023-05-07T04:30:46;12.60;99.90
11934;DHT22;6026;48.784;9.198;2023-05-07T04:33:11;12.60;99.90
11934;DHT22;6026;48.784;9.198;2023-05-07T04:35:37;12.60;99.90
11934;DHT22;6026;48.784;9.198;2023-05-07T04:38:03;12.60;99.90
11934;DHT22;6026;48.784;9.198;2023-05-07T04:40:28;12.60;99.90
11934;DHT22;6026;48.784;9.198;2023-05-07T04:42:54;12.50;99.90
11934;DHT22;6026;48.784;9.198;2023-05-07T04:45:20;12.60;99.90
11934;DHT22;6026;48.784;9.198;2023-05-07T04:47:45;12.60;99.90
11934;DHT22;6026;48.784;9.198;2023-05-07T04:50:11;12.70;99.90
11934;DHT22;6026;48.784;9.198;2023-05-07T04:52:37;12.70;99.90
11934;DHT22;6026;48.784;9.198;2023-05-07T04:55:02;12.70;99.90
11934;DHT22;6026;48.784;9.198;2023-05-07T04:57:28;12.80;99.90
11934;DHT22;6026;48.784;9.198;2023-05-07T04:59:54;12.80;99.90
11934;DHT22;6026;48.784;9.198;2023-05-07T05:02:19;12.80;99.90
11934;DHT22;6026;48.784;9.198;2023-05-07T05:04:45;12.80;99.90
11934;DHT22;6026;48.784;9.198;2023-05-07T05:07:11;12.80;99.90
11934;DHT22;6026;48.784;9.198;2023-05-07T05:09:36;12.80;99.90
11934;DHT22;6026;48.784;9.198;2023-05-07T05:12:02;12.80;99.90
11934;DHT22;6026;48.784;9.198;2023-05-07T05:14:27;12.80;99.90
11934;DHT22;6026;48.784;9.198;2023-05-07T05:16:53;12.80;99.90
11934;DHT22;6026;48.784;9.198;2023-05-07T05:19:18;12.70;99.90
11934;DHT22;6026;48.784;9.198;2023-05-07T05:21:44;12.70;99.90
11934;DHT22;6026;48.784;9.198;2023-05-07T05:24:10;12.80;99.90
11934;DHT22;6026;48.784;9.198;2023-05-07T05:26:35;12.80;99.90
11934;DHT22;6026;48.784;9.198;2023-05-07T05:29:01;12.90;99.90
11934;DHT22;6026;48.784;9.198;2023-05-07T05:31:26;12.90;99.90
11934;DHT22;6026;48.784;9.198;2023-05-07T05:33:52;12.90;99.90
11934;DHT22;6026;48.784;9.198;2023-05-07T05:36:17;13.00;99.90
11934;DHT22;6026;48.784;9.198;2023-05-07T05:38:43;13.10;99.90
11934;DHT22;6026;48.784;9.198;2023-05-07T05:41:09;13.20;99.90
11934;DHT22;6026;48.784;9.198;2023-05-07T05:43:35;13.30;99.90
11934;DHT22;6026;48.784;9.198;2023-05-07T05:46:01;13.40;99.90
11934;DHT22;6026;48.784;9.198;2023-05-07T05:48:26;13.50;99.90
11934;DHT22;6026;48.784;9.198;2023-05-07T05:50:52;13.60;99.90
11934;DHT22;6026;48.784;9.198;2023-05-07T05:53:17;13.80;99.90
11934;DHT22;6026;48.784;9.198;2023-05-07T05:55:43;14.20;99.90
11934;DHT22;6026;48.784;9.198;2023-05-07T05:58:09;14.50;99.90
11934;DHT22;6026;48.784;9.198;2023-05-07T06:00:35;14.70;99.90
11934;DHT22;6026;48.784;9.198;2023-05-07T06:03:00;14.80;99.90
11934;DHT22;6026;48.784;9.198;2023-05-07T06:05:26;15.00;99.90
11934;DHT22;6026;48.784;9.198;2023-05-07T06:07:51;15.30;99.90
11934;DHT22;6026;48.784;9.198;2023-05-07T06:10:17;15.70;99.90
11934;DHT22;6026;48.784;9.198;2023-05-07T06:12:43;16.20;99.90
11934;DHT22;6026;48.784;9.198;2023-05-07T06:15:09;16.50;99.90
11934;DHT22;6026;48.784;9.198;2023-05-07T06:17:34;16.80;99.90
11934;DHT22;6026;48.784;9.198;2023-05-07T06:20:00;16.90;99.90
11934;DHT22;6026;48.784;9.198;2023-05-07T06:22:25;16.80;99.90
11934;DHT22;6026;48.784;9.198;2023-05-07T06:24:51;16.80;99.90
11934;DHT22;6026;48.784;9.198;2023-05-07T06:27:17;16.80;99.90
11934;DHT22;6026;48.784;9.198;2023-05-07T06:29:42;16.80;99.90
11934;DHT22;6026;48.784;9.198;2023-05-07T06:32:12;16.80;99.90
11934;DHT22;6026;48.784;9.198;2023-05-07T06:34:39;16.70;99.90
11934;DHT22;6026;48.784;9.198;2023-05-07T06:37:05;16.60;99.90
11934;DHT22;6026;48.784;9.198;2023-05-07T06:39:31;16.50;99.90
11934;DHT22;6026;48.784;9.198;2023-05-07T06:41:56;16.50;99.90
11934;DHT22;6026;48.784;9.198;2023-05-07T06:44:22;16.60;99.90
11934;DHT22;6026;48.784;9.198;2023-05-07T06:46:48;16.60;99.90
11934;DHT22;6026;48.784;9.198;2023-05-07T06:49:14;16.80;99.90
11934;DHT22;6026;48.784;9.198;2023-05-07T06:51:40;16.90;99.90
11934;DHT22;6026;48.784;9.198;2023-05-07T06:54:05;17.10;99.90
11934;DHT22;6026;48.784;9.198;2023-05-07T06:56:31;17.20;99.90
11934;DHT22;6026;48.784;9.198;2023-05-07T06:58:57;17.40;99.90
11934;DHT22;6026;48.784;9.198;2023-05-07T07:01:23;17.60;99.90
11934;DHT22;6026;48.784;9.198;2023-05-07T07:03:48;17.80;99.90
11934;DHT22;6026;48.784;9.198;2023-05-07T07:06:14;18.10;99.90
11934;DHT22;6026;48.784;9.198;2023-05-07T07:08:40;18.30;99.90
11934;DHT22;6026;48.784;9.198;2023-05-07T07:11:06;18.40;99.90
11934;DHT22;6026;48.784;9.198;2023-05-07T07:13:31;18.80;99.90
11934;DHT22;6026;48.784;9.198;2023-05-07T07:15:57;19.00;99.90
11934;DHT22;6026;48.784;9.198;2023-05-07T07:18:23;19.30;99.90
11934;DHT22;6026;48.784;9.198;2023-05-07T07:20:48;19.60;99.90
11934;DHT22;6026;48.784;9.198;2023-05-07T07:23:14;19.70;99.90
11934;DHT22;6026;48.784;9.198;2023-05-07T07:25:40;19.80;99.90
11934;DHT22;6026;48.784;9.198;2023-05-07T07:28:06;19.90;99.90
11934;DHT22;6026;48.784;9.198;2023-05-07T07:30:31;20.00;99.90
11934;DHT22;6026;48.784;9.198;2023-05-07T07:32:57;20.20;99.90
11934;DHT22;6026;48.784;9.198;2023-05-07T07:35:31;20.20;99.90
11934;DHT22;6026;48.784;9.198;2023-05-07T07:37:57;20.60;99.90
11934;DHT22;6026;48.784;9.198;2023-05-07T07:40:23;20.80;99.90
11934;DHT22;6026;48.784;9.198;2023-05-07T07:42:49;21.00;99.90
11934;DHT22;6026;48.784;9.198;2023-05-07T07:45:14;21.20;99.90
11934;DHT22;6026;48.784;9.198;2023-05-07T07:47:40;21.40;99.90
11934;DHT22;6026;48.784;9.198;2023-05-07T07:50:06;21.60;99.90
11934;DHT22;6026;48.784;9.198;2023-05-07T07:52:32;21.70;99.90
11934;DHT22;6026;48.784;9.198;2023-05-07T07:54:58;22.10;99.90
11934;DHT22;6026;48.784;9.198;2023-05-07T07:57:23;22.40;99.90
11934;DHT22;6026;48.784;9.198;2023-05-07T07:59:49;22.40;99.90
11934;DHT22;6026;48.784;9.198;2023-05-07T08:02:16;22.70;99.90
11934;DHT22;6026;48.784;9.198;2023-05-07T08:04:42;22.80;99.90
11934;DHT22;6026;48.784;9.198;2023-05-07T08:07:09;22.70;99.90
11934;DHT22;6026;48.784;9.198;2023-05-07T08:09:34;22.60;99.90
11934;DHT22;6026;48.784;9.198;2023-05-07T08:12:00;22.40;99.90
11934;DHT22;6026;48.784;9.198;2023-05-07T08:14:26;22.20;99.90
11934;DHT22;6026;48.784;9.198;2023-05-07T08:16:54;22.40;99.90
11934;DHT22;6026;48.784;9.198;2023-05-07T08:19:19;22.50;99.90
11934;DHT22;6026;48.784;9.198;2023-05-07T08:21:45;22.60;99.90
11934;DHT22;6026;48.784;9.198;2023-05-07T08:24:16;22.60;99.90
11934;DHT22;6026;48.784;9.198;2023-05-07T08:26:44;22.60;99.90
11934;DHT22;6026;48.784;9.198;2023-05-07T08:29:09;22.50;99.90
11934;DHT22;6026;48.784;9.198;2023-05-07T08:31:35;22.60;99.90
11934;DHT22;6026;48.784;9.198;2023-05-07T08:34:01;22.90;99.90
11934;DHT22;6026;48.784;9.198;2023-05-07T08:36:26;23.20;99.90
11934;DHT22;6026;48.784;9.198;2023-05-07T08:38:52;23.30;99.90
11934;DHT22;6026;48.784;9.198;2023-05-07T08:41:18;23.40;99.90
11934;DHT22;6026;48.784;9.198;2023-05-07T08:43:48;23.30;99.90
11934;DHT22;6026;48.784;9.198;2023-05-07T08:46:20;23.60;99.90
11934;DHT22;6026;48.784;9.198;2023-05-07T08:48:50;23.70;99.90
11934;DHT22;6026;48.784;9.198;2023-05-07T08:51:17;23.90;99.90
11934;DHT22;6026;48.784;9.198;2023-05-07T08:53:44;24.10;99.90
11934;DHT22;6026;48.784;9.198;2023-05-07T08:56:10;24.20;99.90
11934;DHT22;6026;48.784;9.198;2023-05-07T08:58:35;24.40;99.90
11934;DHT22;6026;48.784;9.198;2023-05-07T09:01:07;24.50;99.90
11934;DHT22;6026;48.784;9.198;2023-05-07T09:03:33;24.80;99.90
11934;DHT22;6026;48.784;9.198;2023-05-07T09:05:58;24.70;99.90
11934;DHT22;6026;48.784;9.198;2023-05-07T09:08:25;25.10;99.90
11934;DHT22;6026;48.784;9.198;2023-05-07T09:10:52;25.30;99.90
11934;DHT22;6026;48.784;9.198;2023-05-07T09:13:17;25.20;99.90
11934;DHT22;6026;48.784;9.198;2023-05-07T09:15:43;25.20;99.90
11934;DHT22;6026;48.784;9.198;2023-05-07T09:18:09;25.40;99.90
11934;DHT22;6026;48.784;9.198;2023-05-07T09:20:36;25.40;99.90
11934;DHT22;6026;48.784;9.198;2023-05-07T09:23:02;25.50;99.90
11934;DHT22;6026;48.784;9.198;2023-05-07T09:25:32;25.80;99.90
11934;DHT22;6026;48.784;9.198;2023-05-07T09:27:59;25.80;99.90
11934;DHT22;6026;48.784;9.198;2023-05-07T09:30:32;25.80;99.90
11934;DHT22;6026;48.784;9.198;2023-05-07T09:32:59;26.00;99.90
11934;DHT22;6026;48.784;9.198;2023-05-07T09:35:25;25.70;99.90
11934;DHT22;6026;48.784;9.198;2023-05-07T09:37:57;26.00;99.90
11934;DHT22;6026;48.784;9.198;2023-05-07T09:40:27;26.20;99.90
11934;DHT22;6026;48.784;9.198;2023-05-07T09:42:53;26.70;99.90
11934;DHT22;6026;48.784;9.198;2023-05-07T09:45:25;26.90;99.90
11934;DHT22;6026;48.784;9.198;2023-05-07T09:47:55;26.80;99.90
11934;DHT22;6026;48.784;9.198;2023-05-07T09:50:26;27.00;99.90
11934;DHT22;6026;48.784;9.198;2023-05-07T09:52:52;27.00;99.90
11934;DHT22;6026;48.784;9.198;2023-05-07T09:55:18;27.30;99.90
11934;DHT22;6026;48.784;9.198;2023-05-07T09:57:45;27.30;99.90
11934;DHT22;6026;48.784;9.198;2023-05-07T10:00:12;27.30;99.90
11934;DHT22;6026;48.784;9.198;2023-05-07T10:02:39;26.80;99.90
11934;DHT22;6026;48.784;9.198;2023-05-07T10:05:12;26.80;99.90
11934;DHT22;6026;48.784;9.198;2023-05-07T10:07:39;26.90;99.90
11934;DHT22;6026;48.784;9.198;2023-05-07T10:10:06;27.10;99.90
11934;DHT22;6026;48.784;9.198;2023-05-07T10:12:32;26.90;99.90
11934;DHT22;6026;48.784;9.198;2023-05-07T10:15:08;26.70;99.90
11934;DHT22;6026;48.784;9.198;2023-05-07T10:17:36;26.30;99.90
11934;DHT22;6026;48.784;9.198;2023-05-07T10:20:02;26.70;99.90
11934;DHT22;6026;48.784;9.198;2023-05-07T10:22:32;26.60;99.90
11934;DHT22;6026;48.784;9.198;2023-05-07T10:24:59;26.70;99.90
11934;DHT22;6026;48.784;9.198;2023-05-07T10:27:28;26.80;99.90
11934;DHT22;6026;48.784;9.198;2023-05-07T10:30:15;26.70;99.90
11934;DHT22;6026;48.784;9.198;2023-05-07T10:32:51;26.70;99.90
11934;DHT22;6026;48.784;9.198;2023-05-07T10:35:21;27.20;99.90
11934;DHT22;6026;48.784;9.198;2023-05-07T10:37:48;27.50;99.90
11934;DHT22;6026;48.784;9.198;2023-05-07T10:40:14;28.00;99.90
11934;DHT22;6026;48.784;9.198;2023-05-07T10:42:56;28.30;99.90
11934;DHT22;6026;48.784;9.198;2023-05-07T10:45:23;28.50;99.90
11934;DHT22;6026;48.784;9.198;2023-05-07T10:50:34;28.50;99.90
11934;DHT22;6026;48.784;9.198;2023-05-07T10:55:48;28.50;99.90
11934;DHT22;6026;48.784;9.198;2023-05-07T10:58:24;28.10;99.90
11934;DHT22;6026;48.784;9.198;2023-05-07T11:01:00;27.90;99.90
11934;DHT22;6026;48.784;9.198;2023-05-07T11:03:27;27.60;99.90
11934;DHT22;6026;48.784;9.198;2023-05-07T11:06:14;27.30;99.90
11934;DHT22;6026;48.784;9.198;2023-05-07T11:11:18;27.00;99.90
11934;DHT22;6026;48.784;9.198;2023-05-07T11:13:46;26.80;99.90
11934;DHT22;6026;48.784;9.198;2023-05-07T11:16:23;26.90;99.90
11934;DHT22;6026;48.784;9.198;2023-05-07T11:18:51;27.10;99.90
11934;DHT22;6026;48.784;9.198;2023-05-07T11:21:39;27.20;99.90
11934;DHT22;6026;48.784;9.198;2023-05-07T11:24:07;27.00;99.90
11934;DHT22;6026;48.784;9.198;2023-05-07T11:26:49;27.10;99.90
11934;DHT22;6026;48.784;9.198;2023-05-07T11:29:20;27.10;99.90
11934;DHT22;6026;48.784;9.198;2023-05-07T11:31:53;26.80;99.90
11934;DHT22;6026;48.784;9.198;2023-05-07T11:34:23;26.70;99.90
11934;DHT22;6026;48.784;9.198;2023-05-07T11:36:49;26.70;99.90
11934;DHT22;6026;48.784;9.198;2023-05-07T11:39:32;26.70;99.90
11934;DHT22;6026;48.784;9.198;2023-05-07T11:42:01;26.60;99.90
11934;DHT22;6026;48.784;9.198;2023-05-07T11:44:45;26.60;99.90
11934;DHT22;6026;48.784;9.198;2023-05-07T11:47:16;26.50;99.90
11934;DHT22;6026;48.784;9.198;2023-05-07T11:49:42;26.30;99.90
11934;DHT22;6026;48.784;9.198;2023-05-07T11:52:08;26.30;99.90
11934;DHT22;6026;48.784;9.198;2023-05-07T11:54:37;26.00;99.90
11934;DHT22;6026;48.784;9.198;2023-05-07T11:57:03;25.60;99.90
11934;DHT22;6026;48.784;9.198;2023-05-07T11:59:28;25.40;99.90
11934;DHT22;6026;48.784;9.198;2023-05-07T12:01:57;25.20;99.90
11934;DHT22;6026;48.784;9.198;2023-05-07T12:04:24;25.00;99.90
11934;DHT22;6026;48.784;9.198;2023-05-07T12:06:54;24.90;99.90
11934;DHT22;6026;48.784;9.198;2023-05-07T12:09:21;24.60;99.90
11934;DHT22;6026;48.784;9.198;2023-05-07T12:11:46;24.50;99.90
11934;DHT22;6026;48.784;9.198;2023-05-07T12:14:12;24.30;99.90
11934;DHT22;6026;48.784;9.198;2023-05-07T12:16:40;24.20;99.90
11934;DHT22;6026;48.784;9.198;2023-05-07T12:19:06;23.90;99.90
11934;DHT22;6026;48.784;9.198;2023-05-07T12:21:33;23.70;99.90
11934;DHT22;6026;48.784;9.198;2023-05-07T12:23:59;23.10;99.90
11934;DHT22;6026;48.784;9.198;2023-05-07T12:26:25;22.40;99.90
11934;DHT22;6026;48.784;9.198;2023-05-07T12:28:50;21.40;99.90
11934;DHT22;6026;48.784;9.198;2023-05-07T12:31:16;20.40;99.90
11934;DHT22;6026;48.784;9.198;2023-05-07T12:33:42;20.00;99.90
11934;DHT22;6026;48.784;9.198;2023-05-07T12:36:07;19.50;99.90
11934;DHT22;6026;48.784;9.198;2023-05-07T12:38:40;19.00;99.90
11934;DHT22;6026;48.784;9.198;2023-05-07T12:41:08;18.20;99.90
11934;DHT22;6026;48.784;9.198;2023-05-07T12:43:34;17.80;99.90
11934;DHT22;6026;48.784;9.198;2023-05-07T12:46:03;17.50;99.90
11934;DHT22;6026;48.784;9.198;2023-05-07T12:48:29;17.40;99.90
11934;DHT22;6026;48.784;9.198;2023-05-07T12:50:55;17.00;99.90
11934;DHT22;6026;48.784;9.198;2023-05-07T12:53:23;16.60;99.90
11934;DHT22;6026;48.784;9.198;2023-05-07T12:55:55;16.40;99.90
11934;DHT22;6026;48.784;9.198;2023-05-07T12:58:33;16.20;99.90
11934;DHT22;6026;48.784;9.198;2023-05-07T13:01:03;16.20;99.90
11934;DHT22;6026;48.784;9.198;2023-05-07T13:03:31;16.10;99.90
11934;DHT22;6026;48.784;9.198;2023-05-07T13:06:02;15.80;99.90
11934;DHT22;6026;48.784;9.198;2023-05-07T13:11:01;15.40;99.90
11934;DHT22;6026;48.784;9.198;2023-05-07T13:13:32;15.20;99.90
11934;DHT22;6026;48.784;9.198;2023-05-07T13:15:59;15.20;99.90
11934;DHT22;6026;48.784;9.198;2023-05-07T13:18:26;14.90;99.90
11934;DHT22;6026;48.784;9.198;2023-05-07T13:20:52;14.80;99.90
11934;DHT22;6026;48.784;9.198;2023-05-07T13:23:18;14.50;99.90
11934;DHT22;6026;48.784;9.198;2023-05-07T13:25:44;14.40;99.90
11934;DHT22;6026;48.784;9.198;2023-05-07T13:28:09;14.50;99.90
11934;DHT22;6026;48.784;9.198;2023-05-07T13:30:35;14.30;99.90
11934;DHT22;6026;48.784;9.198;2023-05-07T13:33:01;14.30;99.90
11934;DHT22;6026;48.784;9.198;2023-05-07T13:35:27;14.30;99.90
11934;DHT22;6026;48.784;9.198;2023-05-07T13:37:52;14.30;99.90
11934;DHT22;6026;48.784;9.198;2023-05-07T13:40:20;14.20;99.90
11934;DHT22;6026;48.784;9.198;2023-05-07T13:42:46;14.30;99.90
11934;DHT22;6026;48.784;9.198;2023-05-07T13:45:11;14.10;99.90
11934;DHT22;6026;48.784;9.198;2023-05-07T13:47:40;14.10;99.90
11934;DHT22;6026;48.784;9.198;2023-05-07T13:50:06;14.20;99.90
11934;DHT22;6026;48.784;9.198;2023-05-07T13:52:32;14.10;99.90
11934;DHT22;6026;48.784;9.198;2023-05-07T13:54:58;14.00;99.90
11934;DHT22;6026;48.784;9.198;2023-05-07T13:57:24;14.00;99.90
11934;DHT22;6026;48.784;9.198;2023-05-07T13:59:50;14.00;99.90
11934;DHT22;6026;48.784;9.198;2023-05-07T14:02:15;13.90;99.90
11934;DHT22;6026;48.784;9.198;2023-05-07T14:04:41;14.10;99.90
11934;DHT22;6026;48.784;9.198;2023-05-07T14:07:06;14.30;99.90
11934;DHT22;6026;48.784;9.198;2023-05-07T14:09:32;14.30;99.90
11934;DHT22;6026;48.784;9.198;2023-05-07T14:11:58;14.30;99.90
11934;DHT22;6026;48.784;9.198;2023-05-07T14:14:24;14.30;99.90
11934;DHT22;6026;48.784;9.198;2023-05-07T14:16:50;14.30;99.90
11934;DHT22;6026;48.784;9.198;2023-05-07T14:19:15;14.30;99.90
11934;DHT22;6026;48.784;9.198;2023-05-07T14:21:41;14.30;99.90
11934;DHT22;6026;48.784;9.198;2023-05-07T14:24:07;14.30;99.90
11934;DHT22;6026;48.784;9.198;2023-05-07T14:26:35;14.30;99.90
11934;DHT22;6026;48.784;9.198;2023-05-07T14:29:01;14.30;99.90
11934;DHT22;6026;48.784;9.198;2023-05-07T14:31:27;14.30;99.90
11934;DHT22;6026;48.784;9.198;2023-05-07T14:33:52;14.30;99.90
11934;DHT22;6026;48.784;9.198;2023-05-07T14:36:19;14.30;99.90
11934;DHT22;6026;48.784;9.198;2023-05-07T14:38:46;14.30;99.90
11934;DHT22;6026;48.784;9.198;2023-05-07T14:41:12;14.40;99.90
11934;DHT22;6026;48.784;9.198;2023-05-07T14:43:38;14.30;99.90
11934;DHT22;6026;48.784;9.198;2023-05-07T14:46:03;14.30;99.90
11934;DHT22;6026;48.784;9.198;2023-05-07T14:48:29;14.30;99.90
11934;DHT22;6026;48.784;9.198;2023-05-07T14:50:54;14.30;99.90
11934;DHT22;6026;48.784;9.198;2023-05-07T14:53:22;14.40;99.90
11934;DHT22;6026;48.784;9.198;2023-05-07T14:55:48;14.50;99.90
11934;DHT22;6026;48.784;9.198;2023-05-07T14:58:13;14.60;99.90
11934;DHT22;6026;48.784;9.198;2023-05-07T15:00:39;14.60;99.90
11934;DHT22;6026;48.784;9.198;2023-05-07T15:03:09;14.80;99.90
11934;DHT22;6026;48.784;9.198;2023-05-07T15:05:36;14.80;99.90
11934;DHT22;6026;48.784;9.198;2023-05-07T15:08:02;14.90;99.90
11934;DHT22;6026;48.784;9.198;2023-05-07T15:10:28;15.00;99.90
11934;DHT22;6026;48.784;9.198;2023-05-07T15:12:53;15.10;99.90
11934;DHT22;6026;48.784;9.198;2023-05-07T15:15:19;15.10;99.90
11934;DHT22;6026;48.784;9.198;2023-05-07T15:17:45;15.20;99.90
11934;DHT22;6026;48.784;9.198;2023-05-07T15:20:10;15.20;99.90
11934;DHT22;6026;48.784;9.198;2023-05-07T15:22:36;15.30;99.90
11934;DHT22;6026;48.784;9.198;2023-05-07T15:25:03;15.20;99.90
11934;DHT22;6026;48.784;9.198;2023-05-07T15:27:29;15.20;99.90
11934;DHT22;6026;48.784;9.198;2023-05-07T15:29:56;15.20;99.90
11934;DHT22;6026;48.784;9.198;2023-05-07T15:32:22;15.30;99.90
11934;DHT22;6026;48.784;9.198;2023-05-07T15:34:47;15.30;99.90
11934;DHT22;6026;48.784;9.198;2023-05-07T15:37:13;15.40;99.90
11934;DHT22;6026;48.784;9.198;2023-05-07T15:39:38;15.40;99.90
11934;DHT22;6026;48.784;9.198;2023-05-07T15:42:04;15.40;99.90
11934;DHT22;6026;48.784;9.198;2023-05-07T15:44:33;15.50;99.90
11934;DHT22;6026;48.784;9.198;2023-05-07T15:47:00;15.60;99.90
11934;DHT22;6026;48.784;9.198;2023-05-07T15:49:26;15.60;99.90
11934;DHT22;6026;48.784;9.198;2023-05-07T15:51:52;15.60;99.90